Time;durP1;ratioP1;P1;durP2;ratioP2;P2;SDS_P1;SDS_P2;PMS_P1;PMS_P2;Temp;Humidity;BMP_temperature;BMP_pressure;BME280_temperature;BME280_humidity;BME280_pressure;Samples;Min_cycle;Max_cycle;Signal;HPM_P1;HPM_P2
2023/01/13 00:02:30;;;;;;;0.77;0.40;;;10.00;99.90;;;;;;7295628;32;20113;-59
2023/01/13 00:06:31;;;;;;;1.00;0.20;;;9.90;99.90;;;;;;7293379;32;20104;-60
2023/01/13 00:10:33;;;;;;;2.58;0.50;;;9.90;99.90;;;;;;7293317;32;20204;-59
2023/01/13 00:14:35;;;;;;;1.15;0.40;;;9.90;99.90;;;;;;7294608;32;20534;-59
2023/01/13 00:18:37;;;;;;;1.15;0.47;;;10.00;99.90;;;;;;7292065;32;20105;-59
2023/01/13 00:22:39;;;;;;;1.10;0.50;;;9.90;99.90;;;;;;7297931;32;20096;-59
2023/01/13 00:26:40;;;;;;;3.67;0.30;;;9.90;99.90;;;;;;7295654;32;20218;-60
2023/01/13 00:30:42;;;;;;;1.12;0.40;;;9.90;99.90;;;;;;7292032;32;20099;-59
2023/01/13 00:34:44;;;;;;;1.60;0.55;;;9.80;99.90;;;;;;7294567;32;20539;-59
2023/01/13 00:38:46;;;;;;;1.15;0.32;;;9.80;99.90;;;;;;7298672;32;20508;-59
2023/01/13 00:47:08;;;;;;;1.15;0.50;;;9.80;99.90;;;;;;7292936;32;20207;-59
2023/01/13 00:51:13;;;;;;;3.95;0.70;;;9.80;99.90;;;;;;7296942;32;20206;-60
2023/01/13 00:55:15;;;;;;;4.32;0.50;;;9.80;99.90;;;;;;7294679;32;20187;-59
2023/01/13 00:59:17;;;;;;;2.33;0.40;;;9.70;99.90;;;;;;7279838;32;20343;-59
2023/01/13 01:03:19;;;;;;;3.62;0.62;;;9.70;99.90;;;;;;7297698;32;20101;-59
2023/01/13 01:07:20;;;;;;;3.03;0.68;;;9.70;99.90;;;;;;7296489;32;20529;-60
2023/01/13 01:11:25;;;;;;;5.47;0.60;;;9.60;99.90;;;;;;7292266;32;20124;-59
2023/01/13 01:15:26;;;;;;;3.37;0.60;;;9.60;99.90;;;;;;7296934;32;20207;-59
2023/01/13 01:19:28;;;;;;;6.22;1.12;;;9.60;99.90;;;;;;7294904;32;20373;-58
2023/01/13 01:23:31;;;;;;;4.22;1.10;;;9.60;99.90;;;;;;7294061;32;20194;-58
2023/01/13 01:27:33;;;;;;;5.80;0.82;;;9.60;99.90;;;;;;7291981;32;20120;-59
2023/01/13 01:31:35;;;;;;;6.82;1.35;;;9.60;99.90;;;;;;7295859;32;20129;-61
2023/01/13 01:35:40;;;;;;;4.90;1.10;;;9.50;99.90;;;;;;7297774;32;20145;-60
2023/01/13 01:39:41;;;;;;;7.85;1.10;;;9.60;99.90;;;;;;7279679;32;20512;-60
2023/01/13 01:43:58;;;;;;;7.72;0.70;;;9.60;99.90;;;;;;7294314;32;20114;-60
2023/01/13 01:48:04;;;;;;;3.03;0.68;;;9.50;99.90;;;;;;7289161;32;20510;-60
2023/01/13 01:52:15;;;;;;;9.32;1.30;;;9.50;99.90;;;;;;7296850;32;20329;-60
2023/01/13 01:56:18;;;;;;;7.55;1.77;;;9.50;99.90;;;;;;7292569;32;20104;-60
2023/01/13 02:00:20;;;;;;;5.65;1.40;;;9.50;99.90;;;;;;7293300;32;20108;-60
2023/01/13 02:04:28;;;;;;;7.12;1.10;;;9.40;99.90;;;;;;7296796;32;20108;-60
2023/01/13 02:08:29;;;;;;;7.28;0.98;;;9.40;99.90;;;;;;7286520;32;20104;-60
2023/01/13 02:12:32;;;;;;;8.82;0.95;;;9.30;99.90;;;;;;7294295;32;20262;-60
2023/01/13 02:16:36;;;;;;;8.30;1.10;;;9.30;99.90;;;;;;7293846;32;20166;-60
2023/01/13 02:21:05;;;;;;;6.95;0.85;;;9.20;99.90;;;;;;7290144;32;20100;-60
2023/01/13 02:25:15;;;;;;;5.82;1.00;;;9.20;99.90;;;;;;7293066;32;20572;-59
2023/01/13 02:34:39;;;;;;;4.10;0.60;;;9.10;99.90;;;;;;7294739;32;20178;-60
2023/01/13 02:38:51;;;;;;;2.92;0.50;;;9.00;99.90;;;;;;7289943;32;20418;-59
2023/01/13 02:44:15;;;;;;;6.82;0.60;;;8.90;99.90;;;;;;7295512;32;20502;-59
2023/01/13 02:47:49;;;;;;;4.75;0.75;;;8.80;99.90;;;;;;7277450;32;20285;-60
2023/01/13 02:51:53;;;;;;;5.07;0.70;;;8.60;99.90;;;;;;7288858;32;20506;-61
2023/01/13 02:55:58;;;;;;;8.10;0.98;;;8.60;99.90;;;;;;7293484;32;20214;-59
2023/01/13 03:00:01;;;;;;;5.20;0.75;;;8.50;99.90;;;;;;7292133;32;20551;-59
2023/01/13 03:04:46;;;;;;;4.87;0.50;;;8.40;99.90;;;;;;7292706;32;20125;-60
2023/01/13 03:08:53;;;;;;;12.32;1.60;;;8.30;99.90;;;;;;7268623;32;20206;-60
2023/01/13 03:13:09;;;;;;;5.97;1.00;;;8.20;99.90;;;;;;7294814;32;20234;-60
2023/01/13 03:17:18;;;;;;;6.37;1.00;;;8.10;99.90;;;;;;7290900;32;20120;-60
2023/01/13 03:21:41;;;;;;;10.30;1.60;;;7.90;99.90;;;;;;7290002;32;20191;-59
2023/01/13 03:25:55;;;;;;;8.57;1.00;;;7.90;99.90;;;;;;7296012;32;20897;-59
2023/01/13 03:30:09;;;;;;;8.73;1.42;;;7.80;99.90;;;;;;7289227;32;20122;-59
2023/01/13 03:34:16;;;;;;;6.15;1.17;;;7.80;99.90;;;;;;7290808;32;20913;-60
2023/01/13 03:38:31;;;;;;;7.50;0.90;;;7.60;99.90;;;;;;7283281;32;20163;-59
2023/01/13 03:42:36;;;;;;;6.22;0.80;;;7.60;99.90;;;;;;7297260;32;20266;-59
2023/01/13 03:46:45;;;;;;;8.82;1.12;;;7.60;99.90;;;;;;7294775;32;20829;-59
2023/01/13 03:50:50;;;;;;;9.30;0.88;;;7.70;99.90;;;;;;7292838;32;20105;-59
2023/01/13 03:55:27;;;;;;;8.45;0.88;;;7.70;99.90;;;;;;7298148;32;20565;-59
2023/01/13 03:59:39;;;;;;;5.60;0.88;;;7.60;99.90;;;;;;7256299;32;20149;-59
2023/01/13 04:03:57;;;;;;;5.95;0.93;;;7.60;99.90;;;;;;7302146;32;20122;-59
2023/01/13 04:08:22;;;;;;;7.03;0.98;;;7.50;99.90;;;;;;7289265;32;20112;-59
2023/01/13 04:13:01;;;;;;;11.15;1.70;;;7.50;99.90;;;;;;7297400;32;20229;-59
2023/01/13 04:17:04;;;;;;;10.90;1.33;;;7.60;99.90;;;;;;7273458;32;20554;-60
2023/01/13 04:21:06;;;;;;;10.13;1.20;;;7.60;99.90;;;;;;7297449;32;20743;-60
2023/01/13 04:25:08;;;;;;;11.20;1.17;;;7.50;99.90;;;;;;7299100;32;20165;-59
2023/01/13 04:29:10;;;;;;;8.45;1.10;;;7.50;99.90;;;;;;7298029;32;20112;-60
2023/01/13 04:33:15;;;;;;;9.68;1.20;;;7.60;99.90;;;;;;7292678;32;20100;-59
2023/01/13 04:37:17;;;;;;;7.05;1.02;;;7.70;99.90;;;;;;7299442;32;20104;-59
2023/01/13 04:41:18;;;;;;;10.57;1.50;;;7.80;99.90;;;;;;7298621;32;20112;-60
2023/01/13 04:45:20;;;;;;;8.00;1.12;;;7.90;99.90;;;;;;7296267;32;20112;-59
2023/01/13 04:49:22;;;;;;;11.15;1.55;;;8.00;99.90;;;;;;7297759;32;20505;-59
2023/01/13 04:53:23;;;;;;;11.75;1.50;;;8.00;99.90;;;;;;7300517;32;20203;-60
2023/01/13 04:57:25;;;;;;;15.95;1.37;;;8.00;99.90;;;;;;7292091;32;20203;-59
2023/01/13 05:01:27;;;;;;;13.73;1.45;;;8.00;99.90;;;;;;7296679;32;20241;-60
2023/01/13 05:05:30;;;;;;;9.57;1.20;;;8.00;99.90;;;;;;7297584;32;20111;-60
2023/01/13 05:09:31;;;;;;;11.95;1.70;;;8.00;99.90;;;;;;7291549;32;20139;-60
2023/01/13 05:17:53;;;;;;;8.85;1.35;;;8.00;99.90;;;;;;7299319;32;20368;-60
2023/01/13 05:26:15;;;;;;;8.88;1.40;;;8.00;99.90;;;;;;7295476;32;20221;-59
2023/01/13 05:30:19;;;;;;;10.48;1.67;;;7.90;99.90;;;;;;7292500;32;20526;-60
2023/01/13 05:34:20;;;;;;;12.07;1.55;;;7.90;99.90;;;;;;7296492;32;20131;-59
2023/01/13 05:38:22;;;;;;;11.20;1.73;;;8.00;99.90;;;;;;7294921;32;20141;-60
2023/01/13 05:46:44;;;;;;;11.98;1.42;;;8.00;99.90;;;;;;7294966;32;20262;-59
2023/01/13 05:50:48;;;;;;;11.98;1.87;;;8.00;99.90;;;;;;7288618;32;20336;-58
2023/01/13 05:54:49;;;;;;;11.55;1.70;;;8.00;99.90;;;;;;7288453;32;20162;-59
2023/01/13 05:58:51;;;;;;;12.55;1.60;;;8.00;99.90;;;;;;7297460;32;20112;-58
2023/01/13 06:02:53;;;;;;;7.20;1.20;;;7.90;99.90;;;;;;7294747;32;20151;-59
2023/01/13 06:06:55;;;;;;;13.02;1.45;;;7.90;99.90;;;;;;7291177;32;20557;-58
2023/01/13 06:10:57;;;;;;;19.98;1.95;;;8.00;99.90;;;;;;7290736;32;20209;-59
2023/01/13 06:14:58;;;;;;;16.70;2.30;;;8.10;99.90;;;;;;7292133;32;20239;-59
2023/01/13 06:19:00;;;;;;;11.18;1.45;;;8.10;99.90;;;;;;7296248;32;20112;-60
2023/01/13 06:23:02;;;;;;;10.18;1.70;;;8.10;99.90;;;;;;7295103;32;20104;-59
2023/01/13 06:27:06;;;;;;;10.88;1.77;;;8.10;99.90;;;;;;7294242;32;20122;-59
2023/01/13 06:31:09;;;;;;;14.13;1.58;;;8.10;99.90;;;;;;7294979;32;20103;-58
2023/01/13 06:35:15;;;;;;;9.85;1.35;;;8.00;99.90;;;;;;7295994;32;20218;-59
2023/01/13 06:39:20;;;;;;;10.68;1.40;;;8.00;99.90;;;;;;7293497;32;20141;-60
2023/01/13 06:43:21;;;;;;;21.75;8.68;;;7.90;99.90;;;;;;7291188;32;20134;-59
2023/01/13 06:47:23;;;;;;;8.60;1.60;;;7.80;99.90;;;;;;7288857;32;20541;-61
2023/01/13 06:51:25;;;;;;;9.23;1.37;;;7.80;99.90;;;;;;7294262;32;20418;-59
2023/01/13 06:55:27;;;;;;;9.63;1.50;;;7.80;99.90;;;;;;7295945;32;20530;-59
2023/01/13 06:59:29;;;;;;;8.20;1.90;;;7.70;99.90;;;;;;7286883;32;20116;-59
2023/01/13 07:03:30;;;;;;;10.65;1.40;;;7.70;99.90;;;;;;7293602;32;20139;-59
2023/01/13 07:07:33;;;;;;;9.57;1.40;;;7.60;99.90;;;;;;7289796;32;20246;-58
2023/01/13 07:11:34;;;;;;;10.95;1.67;;;7.50;99.90;;;;;;7292024;32;20112;-58
2023/01/13 07:15:36;;;;;;;11.05;1.73;;;7.50;99.90;;;;;;7290440;32;20243;-58
2023/01/13 07:19:38;;;;;;;13.32;2.08;;;7.60;99.90;;;;;;7291543;32;20138;-58
2023/01/13 07:23:40;;;;;;;8.73;1.30;;;7.50;99.90;;;;;;7290311;32;20128;-58
2023/01/13 07:27:42;;;;;;;10.00;1.12;;;7.60;99.90;;;;;;7295821;32;20663;-58
2023/01/13 07:31:44;;;;;;;11.40;1.83;;;7.50;99.90;;;;;;7296734;32;20163;-59
2023/01/13 07:35:46;;;;;;;13.40;1.45;;;7.50;99.90;;;;;;7294990;32;20221;-63
2023/01/13 07:39:49;;;;;;;11.23;1.48;;;7.50;99.90;;;;;;7300766;32;20134;-60
2023/01/13 07:43:51;;;;;;;9.93;1.40;;;7.60;99.90;;;;;;7303311;32;20308;-61
2023/01/13 07:47:52;;;;;;;12.82;1.73;;;7.60;99.90;;;;;;7297508;32;20099;-61
2023/01/13 07:51:54;;;;;;;9.82;1.35;;;7.60;99.90;;;;;;7298072;32;20631;-60
2023/01/13 07:55:57;;;;;;;11.23;1.55;;;7.70;99.90;;;;;;7295177;32;20537;-62
2023/01/13 07:59:59;;;;;;;9.88;1.50;;;7.80;99.90;;;;;;7301502;32;20130;-61
2023/01/13 08:04:00;;;;;;;9.35;1.50;;;7.80;99.90;;;;;;7296884;32;20126;-61
2023/01/13 08:08:02;;;;;;;11.65;1.50;;;7.80;99.90;;;;;;7295928;32;20232;-61
2023/01/13 08:16:24;;;;;;;6.78;1.12;;;7.90;99.90;;;;;;7298004;32;20111;-62
2023/01/13 08:20:26;;;;;;;10.55;1.52;;;7.90;99.90;;;;;;7296139;32;20689;-62
2023/01/13 08:24:28;;;;;;;8.10;1.40;;;8.00;99.90;;;;;;7301007;32;20111;-63
2023/01/13 08:28:31;;;;;;;10.20;1.40;;;8.00;99.90;;;;;;7296797;32;20179;-63
2023/01/13 08:32:32;;;;;;;10.50;1.33;;;8.00;99.90;;;;;;7295227;32;20252;-60
2023/01/13 08:36:34;;;;;;;7.78;1.77;;;8.00;99.90;;;;;;7295282;32;20107;-60
2023/01/13 08:40:37;;;;;;;10.30;1.48;;;8.00;99.90;;;;;;7292649;32;20210;-60
2023/01/13 08:44:39;;;;;;;15.15;1.77;;;8.00;99.90;;;;;;7300641;32;20168;-61
2023/01/13 08:48:41;;;;;;;10.25;1.50;;;8.00;99.90;;;;;;7292313;32;20819;-60
2023/01/13 08:52:43;;;;;;;11.63;1.62;;;8.10;99.90;;;;;;7298925;32;20138;-60
2023/01/13 08:56:45;;;;;;;9.18;1.42;;;8.10;99.90;;;;;;7300020;32;20107;-59
2023/01/13 09:00:47;;;;;;;10.68;1.83;;;8.10;99.90;;;;;;7295578;32;20723;-60
2023/01/13 09:04:50;;;;;;;19.83;2.20;;;8.10;99.90;;;;;;7297448;32;20132;-59
2023/01/13 09:08:51;;;;;;;11.48;1.70;;;8.20;99.90;;;;;;7290018;32;20566;-61
2023/01/13 09:13:11;;;;;;;12.20;1.50;;;8.20;99.90;;;;;;7293930;32;20612;-61
2023/01/13 09:17:13;;;;;;;11.18;2.03;;;8.20;99.90;;;;;;7298361;32;20221;-61
2023/01/13 09:21:18;;;;;;;13.50;1.92;;;8.30;99.90;;;;;;7294147;32;20187;-61
2023/01/13 09:25:20;;;;;;;13.43;1.92;;;8.30;99.90;;;;;;7298012;32;20277;-61
2023/01/13 09:29:21;;;;;;;20.17;1.73;;;8.30;99.90;;;;;;7294696;32;20246;-61
2023/01/13 09:37:43;;;;;;;13.10;2.08;;;8.30;99.90;;;;;;7296655;32;20112;-60
2023/01/13 09:50:46;;;;;;;13.32;1.77;;;8.50;99.90;;;;;;7293026;32;20116;-61
2023/01/13 09:55:09;;;;;;;19.48;2.40;;;8.60;99.90;;;;;;7290590;32;20117;-61
2023/01/13 09:59:11;;;;;;;21.55;2.20;;;8.70;99.90;;;;;;7294344;32;20229;-61
2023/01/13 10:03:28;;;;;;;13.48;2.00;;;8.80;99.90;;;;;;7294991;32;20112;-61
2023/01/13 10:07:33;;;;;;;19.43;3.30;;;8.90;99.90;;;;;;7289125;32;20222;-61
2023/01/13 10:16:05;;;;;;;16.55;1.90;;;9.10;99.90;;;;;;7291590;32;20301;-61
2023/01/13 10:20:19;;;;;;;15.43;2.47;;;9.10;99.90;;;;;;7295926;32;20286;-60
2023/01/13 10:24:32;;;;;;;19.55;2.83;;;9.20;99.90;;;;;;7293050;32;20183;-62
2023/01/13 10:28:34;;;;;;;15.93;2.50;;;9.20;99.90;;;;;;7296212;32;20218;-61
2023/01/13 10:32:35;;;;;;;11.02;2.28;;;9.30;99.90;;;;;;7297732;32;20181;-61
2023/01/13 10:36:37;;;;;;;14.13;2.58;;;9.20;99.90;;;;;;7298620;32;20210;-62
2023/01/13 10:40:50;;;;;;;18.77;3.00;;;9.20;99.90;;;;;;7294327;32;20457;-61
2023/01/13 10:44:58;;;;;;;15.35;2.60;;;9.30;99.90;;;;;;7296527;32;20218;-62
2023/01/13 10:49:40;;;;;;;17.98;2.33;;;9.40;99.90;;;;;;7291876;32;23865;-61
2023/01/13 10:53:55;;;;;;;13.40;2.37;;;9.60;99.90;;;;;;7294071;32;20100;-61
2023/01/13 10:58:10;;;;;;;12.90;2.12;;;9.60;99.90;;;;;;7282736;32;20322;-60
2023/01/13 11:02:28;;;;;;;15.95;2.80;;;9.60;99.90;;;;;;7289489;32;20133;-61
2023/01/13 11:06:32;;;;;;;12.77;2.25;;;9.80;99.90;;;;;;7295934;32;20531;-60
2023/01/13 11:10:42;;;;;;;16.83;2.58;;;9.80;99.90;;;;;;7294074;32;20136;-59
2023/01/13 11:14:46;;;;;;;19.40;3.00;;;9.80;99.90;;;;;;7293526;32;20194;-60
2023/01/13 11:19:11;;;;;;;15.05;2.20;;;9.90;99.90;;;;;;7289832;32;20111;-60
2023/01/13 11:23:16;;;;;;;13.35;2.45;;;9.70;99.90;;;;;;7296740;32;20108;-60
2023/01/13 11:27:39;;;;;;;13.05;2.28;;;9.60;99.90;;;;;;7295001;32;20120;-61
2023/01/13 11:31:51;;;;;;;16.62;2.35;;;9.40;99.90;;;;;;7299404;32;20111;-61
2023/01/13 11:36:04;;;;;;;14.57;2.35;;;9.30;99.90;;;;;;7294459;32;20331;-61
2023/01/13 11:40:13;;;;;;;12.70;2.30;;;9.20;99.90;;;;;;7291363;32;20179;-62
2023/01/13 11:44:21;;;;;;;15.18;2.83;;;9.20;99.90;;;;;;7291768;32;20183;-60
2023/01/13 11:48:31;;;;;;;16.95;2.65;;;9.20;99.90;;;;;;7295540;32;20127;-61
2023/01/13 11:52:33;;;;;;;13.70;2.70;;;9.40;99.90;;;;;;7287896;32;20626;-61
2023/01/13 11:56:46;;;;;;;14.55;2.60;;;9.40;99.90;;;;;;7293334;32;20420;-60
2023/01/13 12:01:03;;;;;;;18.83;2.47;;;9.30;99.90;;;;;;7294726;32;20146;-61
2023/01/13 12:05:10;;;;;;;17.37;2.75;;;9.10;99.90;;;;;;7289783;32;20116;-61
2023/01/13 12:09:47;;;;;;;16.62;2.83;;;8.90;99.90;;;;;;7292545;32;20104;-59
2023/01/13 12:14:13;;;;;;;19.77;2.58;;;8.80;99.90;;;;;;7283977;32;20355;-60
2023/01/13 12:18:48;;;;;;;16.05;2.37;;;8.70;99.90;;;;;;7300462;32;20127;-59
2023/01/13 12:22:52;;;;;;;18.85;2.37;;;8.60;99.90;;;;;;7293238;32;20507;-60
2023/01/13 12:26:59;;;;;;;25.12;2.83;;;8.50;99.90;;;;;;7294492;32;20118;-60
2023/01/13 12:31:01;;;;;;;;;;;8.50;99.90;;;;;;7298978;32;20135;-59
2023/01/13 12:35:15;;;;;;;20.37;2.28;;;8.50;99.90;;;;;;7294212;32;20026;-60
2023/01/13 12:39:31;;;;;;;12.32;1.48;;;8.50;99.90;;;;;;7295615;32;20104;-59
2023/01/13 12:47:58;;;;;;;13.93;2.05;;;8.00;99.90;;;;;;7292568;32;20112;-59
2023/01/13 12:52:14;;;;;;;13.62;1.98;;;7.80;99.90;;;;;;7290637;32;20115;-62
2023/01/13 12:56:43;;;;;;;12.70;1.75;;;7.50;99.90;;;;;;7294995;32;20130;-60
2023/01/13 13:00:47;;;;;;;17.00;2.15;;;7.40;99.90;;;;;;7290147;32;20116;-60
2023/01/13 13:04:54;;;;;;;17.20;2.15;;;7.40;99.90;;;;;;7295814;32;20174;-59
2023/01/13 13:09:03;;;;;;;14.85;2.17;;;7.50;99.90;;;;;;7293770;32;20274;-59
2023/01/13 13:13:40;;;;;;;16.77;2.20;;;7.60;99.90;;;;;;7295575;32;20585;-59
2023/01/13 13:17:43;;;;;;;11.88;2.08;;;7.80;99.90;;;;;;7281548;32;20541;-61
2023/01/13 13:22:13;;;;;;;13.57;2.30;;;7.80;99.90;;;;;;7295835;32;20792;-60
2023/01/13 13:26:23;;;;;;;8.70;1.85;;;7.90;99.90;;;;;;7294383;32;20134;-61
2023/01/13 13:30:33;;;;;;;14.70;2.05;;;7.90;99.90;;;;;;7293830;32;20192;-60
2023/01/13 13:35:09;;;;;;;8.48;1.70;;;8.00;99.90;;;;;;7295580;32;20171;-60
2023/01/13 13:48:19;;;;;;;17.08;2.67;;;8.00;99.90;;;;;;7286951;32;20203;-59
2023/01/13 13:52:50;;;;;;;10.85;2.17;;;8.10;99.90;;;;;;7289588;32;20116;-61
2023/01/13 13:56:52;;;;;;;15.38;2.47;;;8.00;99.90;;;;;;7292516;32;20188;-60
2023/01/13 14:00:54;;;;;;;14.18;2.90;;;8.00;99.90;;;;;;7291361;32;20347;-60
2023/01/13 14:05:19;;;;;;;18.50;2.95;;;7.90;99.90;;;;;;7289443;32;20111;-60
2023/01/13 14:09:23;;;;;;;11.05;2.47;;;7.90;99.90;;;;;;7291062;32;20165;-61
2023/01/13 14:13:31;;;;;;;17.48;2.45;;;7.90;99.90;;;;;;7291454;32;20168;-60
2023/01/13 14:17:33;;;;;;;15.45;2.60;;;7.80;99.90;;;;;;7293355;32;20166;-60
2023/01/13 14:21:35;;;;;;;15.80;2.33;;;7.80;99.90;;;;;;7291952;32;20494;-59
2023/01/13 14:25:44;;;;;;;21.77;2.55;;;7.80;99.90;;;;;;7291279;32;20298;-60
2023/01/13 14:29:46;;;;;;;16.25;3.45;;;7.80;99.90;;;;;;7292011;32;20112;-59
2023/01/13 14:33:51;;;;;;;17.92;3.00;;;7.70;99.90;;;;;;7294635;32;20358;-59
2023/01/13 14:38:01;;;;;;;19.87;2.75;;;7.60;99.90;;;;;;7291391;32;20203;-60
2023/01/13 14:42:02;;;;;;;13.13;2.67;;;7.50;99.90;;;;;;7291093;32;20198;-60
2023/01/13 14:46:04;;;;;;;16.35;2.80;;;7.50;99.90;;;;;;7290397;32;20138;-59
2023/01/13 14:50:09;;;;;;;20.05;3.00;;;7.50;99.90;;;;;;7290747;32;20126;-59
2023/01/13 14:54:43;;;;;;;14.05;2.33;;;7.50;99.90;;;;;;7291193;32;20458;-59
2023/01/13 14:58:48;;;;;;;17.83;2.22;;;7.60;99.90;;;;;;7291502;32;20136;-59
2023/01/13 15:02:52;;;;;;;15.43;2.17;;;7.60;99.90;;;;;;7291324;32;20153;-59
2023/01/13 15:06:56;;;;;;;17.55;2.80;;;7.60;99.90;;;;;;7294644;32;20134;-59
2023/01/13 15:11:03;;;;;;;14.95;2.20;;;7.60;99.90;;;;;;7289046;32;20115;-59
2023/01/13 15:15:19;;;;;;;20.25;2.70;;;7.60;99.90;;;;;;7290257;32;20944;-59
2023/01/13 15:19:21;;;;;;;13.73;2.10;;;7.60;99.90;;;;;;7293554;32;20775;-59
2023/01/13 15:23:23;;;;;;;14.25;2.45;;;7.70;99.90;;;;;;7294051;32;20182;-59
2023/01/13 15:27:25;;;;;;;17.37;2.47;;;7.70;99.90;;;;;;7291023;32;20220;-59
2023/01/13 15:31:27;;;;;;;12.10;2.22;;;7.70;99.90;;;;;;7288982;32;20130;-59
2023/01/13 15:35:29;;;;;;;12.43;2.00;;;7.70;99.90;;;;;;7293741;32;20099;-59
2023/01/13 15:39:31;;;;;;;11.45;2.83;;;7.80;99.90;;;;;;7293451;32;20127;-61
2023/01/13 15:47:54;;;;;;;11.45;2.33;;;7.70;99.90;;;;;;7292267;32;21514;-59
2023/01/13 15:51:56;;;;;;;10.35;2.50;;;7.70;99.90;;;;;;7297674;32;20223;-60
2023/01/13 15:55:58;;;;;;;20.08;3.40;;;7.80;99.90;;;;;;7299580;32;20305;-60
2023/01/13 16:00:20;;;;;;;9.68;2.58;;;7.80;99.90;;;;;;7292137;32;20215;-60
2023/01/13 16:04:22;;;;;;;10.00;2.45;;;7.80;99.90;;;;;;7296243;32;20104;-58
2023/01/13 16:08:23;;;;;;;11.57;2.20;;;7.90;99.90;;;;;;7292250;32;20112;-59
2023/01/13 16:12:25;;;;;;;13.23;2.60;;;7.90;99.90;;;;;;7289030;32;20709;-59
2023/01/13 16:16:28;;;;;;;12.68;3.05;;;7.80;99.90;;;;;;7289702;32;20495;-61
2023/01/13 16:20:30;;;;;;;11.57;2.22;;;7.90;99.90;;;;;;7293346;32;20155;-59
2023/01/13 16:24:31;;;;;;;16.08;3.30;;;7.90;99.90;;;;;;7291609;32;20115;-61
2023/01/13 16:28:34;;;;;;;10.60;2.45;;;7.90;99.90;;;;;;7292233;32;20111;-59
2023/01/13 16:32:36;;;;;;;11.52;2.35;;;8.00;99.90;;;;;;7292048;32;20126;-61
2023/01/13 16:36:38;;;;;;;19.05;2.97;;;8.00;99.90;;;;;;7294988;32;20187;-59
2023/01/13 16:40:39;;;;;;;19.25;2.12;;;7.90;99.90;;;;;;7296743;32;20202;-60
2023/01/13 16:44:41;;;;;;;22.15;3.12;;;8.00;99.90;;;;;;7297749;32;20171;-60
2023/01/13 16:48:43;;;;;;;15.25;3.05;;;7.90;99.90;;;;;;7284587;32;20167;-59
2023/01/13 16:52:45;;;;;;;10.30;2.70;;;7.90;99.90;;;;;;7286376;32;20697;-60
2023/01/13 16:56:47;;;;;;;12.90;2.30;;;7.90;99.90;;;;;;7293945;32;20218;-59
2023/01/13 17:00:48;;;;;;;15.45;2.67;;;7.90;99.90;;;;;;7298604;32;20195;-59
2023/01/13 17:04:50;;;;;;;14.90;2.50;;;7.90;99.90;;;;;;7295192;32;20628;-60
2023/01/13 17:08:52;;;;;;;11.98;2.33;;;7.80;99.90;;;;;;7290960;32;20112;-59
2023/01/13 17:12:54;;;;;;;11.15;2.12;;;7.90;99.90;;;;;;7288875;32;20241;-59
2023/01/13 17:16:56;;;;;;;15.52;2.83;;;7.90;99.90;;;;;;7295868;32;22031;-59
2023/01/13 17:21:01;;;;;;;14.13;2.35;;;7.90;99.90;;;;;;7296502;32;20530;-61
2023/01/13 17:25:03;;;;;;;14.90;2.37;;;7.90;99.90;;;;;;7298201;32;20267;-59
2023/01/13 17:29:10;;;;;;;15.20;2.20;;;7.90;99.90;;;;;;7295343;32;20137;-59
2023/01/13 17:33:12;;;;;;;15.15;2.05;;;7.90;99.90;;;;;;7300251;32;20874;-59
2023/01/13 17:37:15;;;;;;;12.20;2.28;;;7.90;99.90;;;;;;7286320;32;20111;-58
2023/01/13 17:41:16;;;;;;;16.30;2.95;;;8.00;99.90;;;;;;7299525;32;20133;-58
2023/01/13 17:45:18;;;;;;;13.62;2.55;;;8.00;99.90;;;;;;7300517;32;20225;-59
2023/01/13 17:49:20;;;;;;;20.37;2.83;;;8.00;99.90;;;;;;7295270;32;20112;-58
2023/01/13 17:53:22;;;;;;;12.13;2.20;;;8.00;99.90;;;;;;7294695;32;20211;-59
2023/01/13 17:57:23;;;;;;;17.65;2.33;;;8.00;99.90;;;;;;7298018;32;20148;-58
2023/01/13 18:01:29;;;;;;;19.08;2.95;;;8.00;99.90;;;;;;7299397;32;20153;-59
2023/01/13 18:05:32;;;;;;;14.65;2.60;;;8.00;99.90;;;;;;7285987;32;20334;-59
2023/01/13 18:09:34;;;;;;;15.40;2.90;;;8.00;99.90;;;;;;7295699;32;20112;-59
2023/01/13 18:13:38;;;;;;;14.35;2.50;;;8.00;99.90;;;;;;7290829;32;20116;-58
2023/01/13 18:17:39;;;;;;;9.98;2.33;;;8.00;99.90;;;;;;7288845;32;20103;-59
2023/01/13 18:30:38;;;;;;;16.45;2.83;;;8.00;99.90;;;;;;7295268;32;20224;-57
2023/01/13 18:34:40;;;;;;;14.45;2.80;;;7.90;99.90;;;;;;7289883;32;20509;-57
2023/01/13 18:38:42;;;;;;;11.95;2.60;;;7.90;99.90;;;;;;7296195;32;20702;-59
2023/01/13 18:42:50;;;;;;;16.62;3.00;;;8.00;99.90;;;;;;7296195;32;20507;-58
2023/01/13 18:46:51;;;;;;;12.98;2.62;;;8.10;99.90;;;;;;7295397;32;20312;-59
2023/01/13 18:50:53;;;;;;;13.10;2.92;;;8.10;99.90;;;;;;7295800;32;20112;-58
2023/01/13 18:54:55;;;;;;;15.30;2.62;;;8.00;99.90;;;;;;7295611;32;20281;-60
2023/01/13 18:58:57;;;;;;;16.42;2.65;;;8.10;99.90;;;;;;7297297;32;20498;-58
2023/01/13 19:03:03;;;;;;;10.68;2.12;;;8.10;99.90;;;;;;7295745;32;20230;-58
2023/01/13 19:07:07;;;;;;;11.73;2.22;;;8.10;99.90;;;;;;7284921;32;20980;-60
2023/01/13 19:11:09;;;;;;;13.70;2.62;;;8.20;99.90;;;;;;7289110;32;20300;-58
2023/01/13 19:15:11;;;;;;;19.48;2.78;;;8.20;99.90;;;;;;7286543;32;20210;-59
2023/01/13 19:19:12;;;;;;;14.65;1.80;;;8.30;99.90;;;;;;7289152;32;20112;-58
2023/01/13 19:23:14;;;;;;;10.13;1.90;;;8.30;99.90;;;;;;7296062;32;20170;-59
2023/01/13 19:27:18;;;;;;;11.25;2.25;;;8.30;99.90;;;;;;7294440;32;20222;-59
2023/01/13 19:31:19;;;;;;;13.13;2.42;;;8.30;99.90;;;;;;7292921;32;20201;-59
2023/01/13 19:35:21;;;;;;;10.32;2.10;;;8.30;99.90;;;;;;7290794;32;20126;-59
2023/01/13 19:39:23;;;;;;;12.20;2.35;;;8.30;99.90;;;;;;7287570;32;20201;-59
2023/01/13 19:47:46;;;;;;;11.73;2.78;;;8.30;99.90;;;;;;7290106;32;20114;-60
2023/01/13 19:51:47;;;;;;;12.45;2.58;;;8.30;99.90;;;;;;7286396;32;22411;-59
2023/01/13 19:55:49;;;;;;;14.25;2.55;;;8.30;99.90;;;;;;7298471;32;20335;-60
2023/01/13 19:59:51;;;;;;;14.10;2.33;;;8.20;99.90;;;;;;7283845;32;20214;-60
2023/01/13 20:03:54;;;;;;;16.27;2.90;;;8.20;99.90;;;;;;7294500;32;20234;-59
2023/01/13 20:07:56;;;;;;;15.00;3.17;;;8.20;99.90;;;;;;7299808;32;20135;-60
2023/01/13 20:12:01;;;;;;;13.18;2.15;;;8.20;99.90;;;;;;7302824;32;20103;-59
2023/01/13 20:16:04;;;;;;;14.70;2.30;;;8.20;99.90;;;;;;7297558;32;20127;-59
2023/01/13 20:20:07;;;;;;;19.37;2.60;;;8.20;99.90;;;;;;7299056;32;20207;-59
2023/01/13 20:24:15;;;;;;;13.43;2.15;;;8.10;99.90;;;;;;7298279;32;20131;-59
2023/01/13 20:28:18;;;;;;;15.02;2.72;;;8.10;99.90;;;;;;7298112;32;20332;-61
2023/01/13 20:32:20;;;;;;;12.52;2.12;;;8.10;99.90;;;;;;7294257;32;20576;-60
2023/01/13 20:36:31;;;;;;;16.35;2.12;;;8.10;99.90;;;;;;7293936;32;20108;-61
2023/01/13 20:40:33;;;;;;;13.35;2.28;;;8.10;99.90;;;;;;7299506;32;20119;-60
2023/01/13 20:44:35;;;;;;;18.42;3.15;;;8.00;99.90;;;;;;7297641;32;20215;-60
2023/01/13 20:48:37;;;;;;;17.87;2.83;;;8.00;99.90;;;;;;7295771;32;20255;-60
2023/01/13 20:52:39;;;;;;;14.00;3.42;;;8.00;99.90;;;;;;7295475;32;20109;-60
2023/01/13 20:56:40;;;;;;;18.23;3.10;;;8.00;99.90;;;;;;7297982;32;20119;-61
2023/01/13 21:00:42;;;;;;;17.65;2.72;;;7.90;99.90;;;;;;7298740;32;20215;-61
2023/01/13 21:04:44;;;;;;;17.05;3.10;;;8.00;99.90;;;;;;7293748;32;20205;-60
2023/01/13 21:08:46;;;;;;;18.33;2.92;;;8.00;99.90;;;;;;7298026;32;20149;-60
2023/01/13 21:21:47;;;;;;;27.35;3.22;;;7.90;99.90;;;;;;7218572;32;20706;-59
2023/01/13 21:25:48;;;;;;;15.93;3.83;;;7.80;99.90;;;;;;7292772;32;20165;-60
2023/01/13 21:29:50;;;;;;;21.35;3.58;;;7.80;99.90;;;;;;7276855;32;20108;-62
2023/01/13 21:33:53;;;;;;;23.70;3.67;;;7.80;99.90;;;;;;7297875;32;20233;-62
2023/01/13 21:37:56;;;;;;;21.08;3.28;;;7.70;99.90;;;;;;7294496;32;20142;-61
2023/01/13 21:50:41;;;;;;;14.93;3.03;;;7.70;99.90;;;;;;7290353;32;21502;-59
2023/01/13 21:59:02;;;;;;;21.87;3.65;;;7.80;99.90;;;;;;7298173;32;20157;-60
2023/01/13 22:03:06;;;;;;;15.98;2.78;;;7.80;99.90;;;;;;7288704;32;20783;-60
2023/01/13 22:07:08;;;;;;;15.77;3.12;;;7.80;99.90;;;;;;7293600;32;20728;-61
2023/01/13 22:11:11;;;;;;;24.65;3.42;;;7.80;99.90;;;;;;7291750;32;20515;-60
2023/01/13 22:15:15;;;;;;;26.48;4.25;;;7.70;99.90;;;;;;7287596;32;20557;-59
2023/01/13 22:19:17;;;;;;;24.83;3.30;;;7.70;99.90;;;;;;7286455;32;20562;-59
2023/01/13 22:23:20;;;;;;;25.75;4.57;;;7.80;99.90;;;;;;7289071;32;20429;-60
2023/01/13 22:27:24;;;;;;;19.02;3.92;;;7.80;99.90;;;;;;7297851;32;20533;-60
2023/01/13 22:31:27;;;;;;;24.42;4.57;;;7.70;99.90;;;;;;7293845;32;20105;-60
2023/01/13 22:35:29;;;;;;;19.42;4.20;;;7.70;99.90;;;;;;7292627;32;20125;-60
2023/01/13 22:39:30;;;;;;;26.80;4.78;;;7.70;99.90;;;;;;7297018;32;20553;-60
2023/01/13 22:43:33;;;;;;;32.42;4.07;;;7.70;99.90;;;;;;7294173;32;20139;-60
2023/01/13 22:47:35;;;;;;;27.17;4.00;;;7.70;99.90;;;;;;7296193;32;20108;-60
2023/01/13 22:51:37;;;;;;;22.65;3.72;;;7.70;99.90;;;;;;7296734;32;20099;-60
2023/01/13 22:55:38;;;;;;;18.75;3.90;;;7.70;99.90;;;;;;7289467;32;20577;-60
2023/01/13 22:59:40;;;;;;;31.15;4.22;;;7.70;99.90;;;;;;7298490;32;20681;-59
2023/01/13 23:03:45;;;;;;;23.02;3.65;;;7.70;99.90;;;;;;7295275;32;20608;-60